This is the latest recevied weather packets stored in our database for station/object N0HOT. If no packets are shown the sender has not sent any weather packets the latest 10 day(s).
| Time | Temp. | Humidity | Pressure | Rain* | Wind** | Luminosity | Snow |
|---|---|---|---|---|---|---|---|
| 1777984560 | 5° C | 52% | 1011.1 hPa | 0 mm | - | 39 W/m² | - |
| 1777984256 | 5° C | 51% | 1011.1 hPa | 0 mm | - | 39 W/m² | - |
| 1777983953 | 4.44° C | 52% | 1011.1 hPa | 0 mm | - | 33 W/m² | - |
| 1777983650 | 4.44° C | 52% | 1011.1 hPa | 0 mm | - | 31 W/m² | - |
| 1777983347 | 4.44° C | 52% | 1011.1 hPa | 0 mm | - | 31 W/m² | - |
| 1777983044 | 4.44° C | 53% | 1010.8 hPa | 0 mm | - | 34 W/m² | - |
| 1777982740 | 3.89° C | 53% | 1010.8 hPa | 0 mm | - | 26 W/m² | - |
| 1777982436 | 3.89° C | 54% | 1010.8 hPa | 0 mm | - | 23 W/m² | - |
| 1777982130 | 3.89° C | 57% | 1010.8 hPa | 0 mm | - | 22 W/m² | - |
| 1777981828 | 3.89° C | 58% | 1010.5 hPa | 0 mm | - | 20 W/m² | - |
| 1777981525 | 3.89° C | 58% | 1010.5 hPa | 0 mm | - | 22 W/m² | - |
| 1777981221 | 3.33° C | 57% | 1010.1 hPa | 0 mm | - | 20 W/m² | - |
| 1777980918 | 3.33° C | 55% | 1010.1 hPa | 0 mm | - | 17 W/m² | - |
| 1777980614 | 3.33° C | 55% | 1010.1 hPa | 0 mm | - | 16 W/m² | - |
| 1777980311 | 3.33° C | 55% | 1009.8 hPa | 0 mm | - | 12 W/m² | - |
| 1777980009 | 3.33° C | 54% | 1010.1 hPa | 0 mm | - | 10 W/m² | - |
| 1777979702 | 3.33° C | 54% | 1009.8 hPa | 0 mm | - | 8 W/m² | - |
| 1777979399 | 3.33° C | 54% | 1009.8 hPa | 0 mm | - | 6 W/m² | - |
| 1777979095 | 3.89° C | 54% | 1009.8 hPa | 0 mm | - | 4 W/m² | - |
| 1777978792 | 3.89° C | 54% | 1009.8 hPa | 0 mm | - | 3 W/m² | - |
| 1777978489 | 3.89° C | 53% | 1010.1 hPa | 0 mm | - | 1 W/m² | - |
| 1777978185 | 3.89° C | 53% | 1009.8 hPa | 0 mm | - | 0 W/m² | - |
| 1777977882 | 3.89° C | 53% | 1009.8 hPa | 0 mm | - | 0 W/m² | - |
| 1777977579 | 3.89° C | 53% | 1009.8 hPa | 0 mm | - | 0 W/m² | - |
| 1777977276 | 4.44° C | 52% | 1009.4 hPa | 0 mm | - | 0 W/m² | - |
* Rain latest hour (hover to see other rain measurements)
** Current wind speed in m/s (hover to see current wind gust speed)